| time (UTC) | temp C | wind direction | speed KPH | gust KPH | rain 1hr cm | rain 24hr cm | rain mn cm | humidity % | barometer mb |
| 20260504214551 | 16 | 49 | 8.0 | 24.1 | 0.00 | 0.00 | 0.00 | 30 | 1000.6 |
| 20260504213051 | 17 | 40 | 4.8 | 20.9 | 0.00 | 0.00 | 0.00 | 25 | 1000.1 |
| 20260504211554 | 18 | 355 | 14.5 | 29.0 | 0.00 | 0.00 | 0.00 | 25 | 1000.5 |
| 20260504210059 | 18 | 327 | 12.9 | 30.6 | 0.00 | 0.00 | 0.00 | 25 | 1000.6 |
| 20260504204548 | 17 | 59 | 6.4 | 14.5 | 0.00 | 0.00 | 0.00 | 25 | 1000.6 |
| 20260504203045 | 17 | 51 | 0.0 | 17.7 | 0.00 | 0.00 | 0.00 | 25 | 1000.7 |
| 20260504201547 | 17 | 36 | 11.3 | 27.4 | 0.00 | 0.00 | 0.00 | 26 | 1000.7 |
| 20260504200052 | 18 | 5 | 16.1 | 29.0 | 0.00 | 0.00 | 0.00 | 25 | 1000.7 |
| 20260504194539 | 18 | 313 | 0.0 | 12.9 | 0.00 | 0.00 | 0.00 | 22 | 1000.7 |
| 20260504193043 | 20 | 306 | 0.0 | 0.0 | 0.00 | 0.00 | 0.00 | 22 | 1000.8 |
| 20260504191538 | 20 | 55 | 0.0 | 8.0 | 0.00 | 0.00 | 0.00 | 24 | 1000.8 |
| 20260504190036 | 18 | 344 | 0.0 | 8.0 | 0.00 | 0.00 | 0.00 | 25 | 1001.3 |
| 20260504184537 | 20 | 269 | 0.0 | 4.8 | 0.00 | 0.00 | 0.00 | 21 | 1001.1 |
| 20260504183035 | 20 | 355 | 0.0 | 1.6 | 0.00 | 0.00 | 0.00 | 21 | 1001.2 |
| 20260504181527 | 20 | 314 | 0.0 | 1.6 | 0.00 | 0.00 | 0.00 | 22 | 1001.5 |
| 20260504180026 | 20 | 266 | 0.0 | 0.0 | 0.00 | 0.00 | 0.00 | 23 | 1001.7 |
| 20260504174522 | 20 | 350 | 0.0 | 0.0 | 0.00 | 0.00 | 0.00 | 25 | 1001.7 |
| 20260504173021 | 20 | 312 | 0.0 | 0.0 | 0.00 | 0.00 | 0.00 | 26 | 1001.9 |
| 20260504171516 | 19 | 46 | 0.0 | 0.0 | 0.00 | 0.00 | 0.00 | 28 | 1002.0 |
| 20260504160106 | 15 | 140 | 0.0 | 0.0 | 0.00 | 0.00 | 0.00 | 35 | 1002.7 |
| 20260504120130 | 2 | 48 | 0.0 | 0.0 | 0.00 | 0.00 | 0.00 | 67 | 1003.7 |
| 20260504081528 | 5 | 48 | 0.0 | 0.0 | 0.00 | 0.00 | 0.00 | 58 | 1004.0 |
| 20260504044559 | 11 | 135 | 9.7 | 27.4 | 0.00 | 0.00 | 0.00 | 41 | 1004.6 |
| 20260504043113 | 11 | 92 | 6.4 | 29.0 | 0.00 | 0.00 | 0.00 | 40 | 1004.5 |
| 20260504041556 | 11 | 111 | 6.4 | 24.1 | 0.00 | 0.00 | 0.00 | 39 | 1004.6 |
| 20260504040053 | 12 | 160 | 6.4 | 24.1 | 0.00 | 0.00 | 0.00 | 39 | 1004.6 |
| 20260504034555 | 12 | 91 | 6.4 | 24.1 | 0.00 | 0.00 | 0.00 | 38 | 1004.6 |
| 20260504033102 | 12 | 115 | 3.2 | 20.9 | 0.00 | 0.00 | 0.00 | 38 | 1004.5 |
| 20260504031556 | 12 | 98 | 0.0 | 9.7 | 0.00 | 0.00 | 0.00 | 37 | 1004.5 |
| 20260504024549 | 13 | 162 | 0.0 | 0.0 | 0.00 | 0.00 | 0.00 | 35 | 1004.5 |
| 20260504023049 | 14 | 164 | 0.0 | 0.0 | 0.00 | 0.00 | 0.00 | 34 | 1004.4 |
| 20260504021550 | 15 | 194 | 0.0 | 0.0 | 0.00 | 0.00 | 0.00 | 33 | 1004.4 |
| 20260504020025 | 15 | 183 | 0.0 | 8.0 | 0.00 | 0.00 | 0.00 | 33 | 1004.4 |
| 20260504014517 | 16 | 221 | 0.0 | 0.0 | 0.00 | 0.00 | 0.00 | 32 | 1004.4 |
| 20260504013019 | 16 | 240 | 0.0 | 0.0 | 0.00 | 0.00 | 0.00 | 31 | 1004.4 |
| 20260504011513 | 17 | 270 | 0.0 | 0.0 | 0.00 | 0.00 | 0.00 | 28 | 1004.5 |
| 20260504010013 | 18 | 261 | 0.0 | 4.8 | 0.00 | 0.00 | 0.00 | 25 | 1004.5 |
| 20260504004531 | 18 | 303 | 0.0 | 4.8 | 0.00 | 0.00 | 0.00 | 23 | 1004.5 |
| 20260504003010 | 19 | 284 | 8.0 | 16.1 | 0.00 | 0.00 | 0.00 | 22 | 1004.5 |
| 20260504001526 | 20 | 288 | 0.0 | 9.7 | 0.00 | 0.00 | 0.00 | 20 | 1004.5 |
| 20260504000008 | 20 | 360 | 0.0 | 0.0 | 0.00 | 0.00 | 0.00 | 21 | 1004.6 |
| 20260503234513 | 19 | 5 | 0.0 | 4.8 | 0.00 | 0.00 | 0.00 | 21 | 1004.7 |
| 20260503233007 | 18 | 23 | 0.0 | 0.0 | 0.00 | 0.00 | 0.00 | 24 | 1004.9 |
| 20260503231504 | 20 | 281 | 0.0 | 14.5 | 0.00 | 0.00 | 0.00 | 21 | 1005.0 |
| 20260503230005 | 20 | 25 | 9.7 | 24.1 | 0.00 | 0.00 | 0.00 | 21 | 1004.9 |
| 20260503230003 | 20 | 51 | 9.7 | 24.1 | 0.00 | 0.00 | 0.00 | 21 | 1004.9 |
| 20260503224501 | 20 | 34 | 0.0 | 0.0 | 0.00 | 0.00 | 0.00 | 22 | 1005.3 |
| 20260503223007 | 21 | 274 | 0.0 | 14.5 | 0.00 | 0.00 | 0.00 | 19 | 1005.2 |
| 20260503221558 | 21 | 5 | 1.6 | 14.5 | 0.00 | 0.00 | 0.00 | 20 | 1005.2 |
| 20260503220057 | 21 | 268 | 0.0 | 9.7 | 0.00 | 0.00 | 0.00 | 17 | 1005.4 |